Time;durP1;ratioP1;P1;durP2;ratioP2;P2;SDS_P1;SDS_P2;PMS_P1;PMS_P2;Temp;Humidity;BMP_temperature;BMP_pressure;BME280_temperature;BME280_humidity;BME280_pressure;Samples;Min_cycle;Max_cycle;Signal;HPM_P1;HPM_P2
2021/06/24 00:00:53;;;;;;;;;13.00;11.75;;;;;17.43;60.27;101714.41;4958321;28;45426;-68
2021/06/24 00:03:19;;;;;;;;;12.00;12.00;;;;;17.49;60.29;101727.63;4958334;28;45231;-68
2021/06/24 00:05:46;;;;;;;;;10.75;10.75;;;;;17.41;60.07;101700.09;4943211;28;45416;-68
2021/06/24 00:08:13;;;;;;;;;11.00;11.00;;;;;17.52;60.17;101715.78;4943063;28;46514;-68
2021/06/24 00:10:41;;;;;;;;;12.75;11.25;;;;;17.48;59.98;101728.56;4943149;28;45522;-68
2021/06/24 00:13:07;;;;;;;;;9.50;9.50;;;;;17.51;59.77;101732.97;4944676;28;45747;-68
2021/06/24 00:15:34;;;;;;;;;11.00;9.50;;;;;17.46;60.02;101727.75;4957828;28;45464;-68
2021/06/24 00:17:59;;;;;;;;;13.50;13.50;;;;;17.49;60.58;101724.94;4957778;28;48307;-68
2021/06/24 00:20:25;;;;;;;;;10.75;10.75;;;;;17.52;60.33;101722.06;4941571;28;45885;-68
2021/06/24 00:22:51;;;;;;;;;9.50;9.50;;;;;17.61;59.98;101731.59;4943109;28;45455;-68
2021/06/24 00:25:17;;;;;;;;;9.75;8.75;;;;;17.56;59.83;101723.69;4942654;28;45333;-68
2021/06/24 00:27:42;;;;;;;;;9.75;9.75;;;;;17.57;60.46;101722.75;4957980;28;47151;-68
2021/06/24 00:30:08;;;;;;;;;14.25;11.25;;;;;17.52;60.00;101703.16;4942803;28;45288;-68
2021/06/24 00:32:34;;;;;;;;;15.25;11.50;;;;;17.51;59.53;101697.88;4943132;28;45654;-68
2021/06/24 00:35:01;;;;;;;;;9.50;9.50;;;;;17.46;60.04;101695.38;4957822;28;45417;-68
2021/06/24 00:37:27;;;;;;;;;12.25;10.75;;;;;17.38;60.23;101675.94;4942620;28;45269;-68
2021/06/24 00:39:52;;;;;;;;;10.75;10.75;;;;;17.49;60.00;101702.44;4942620;28;45543;-68
2021/06/24 00:42:18;;;;;;;;;11.00;8.75;;;;;17.52;60.30;101713.97;4957692;28;45259;-68
2021/06/24 00:44:44;;;;;;;;;11.00;9.75;;;;;17.39;60.17;101697.47;4928731;28;45501;-68
2021/06/24 00:47:10;;;;;;;;;12.00;10.00;;;;;17.36;60.13;101692.22;4942413;28;45508;-68
2021/06/24 00:49:35;;;;;;;;;9.50;9.50;;;;;17.50;60.44;101723.09;4942693;28;45225;-68
2021/06/24 00:52:01;;;;;;;;;11.25;11.25;;;;;17.34;60.17;101685.13;4957488;28;45399;-68
2021/06/24 00:54:26;;;;;;;;;11.50;11.00;;;;;17.53;60.08;101709.47;4957262;28;45480;-68
2021/06/24 00:56:52;;;;;;;;;10.50;10.50;;;;;17.41;60.18;101695.56;4929809;28;45508;-68
2021/06/24 00:59:17;;;;;;;;;12.75;10.75;;;;;17.39;60.00;101678.59;4942509;28;45250;-68
2021/06/24 01:01:43;;;;;;;;;10.75;10.75;;;;;17.37;60.13;101693.97;4942626;28;45227;-68
2021/06/24 01:04:08;;;;;;;;;10.75;10.75;;;;;17.43;60.14;101700.91;4957347;28;45659;-68
2021/06/24 01:06:34;;;;;;;;;12.00;10.50;;;;;17.34;59.95;101682.41;4942068;28;45639;-68
2021/06/24 01:08:59;;;;;;;;;11.00;11.00;;;;;17.34;60.58;101687.81;4942128;28;45303;-69
2021/06/24 01:11:24;;;;;;;;;14.00;12.25;;;;;17.43;60.14;101697.34;4942472;28;45310;-68
2021/06/24 01:13:50;;;;;;;;;11.75;11.25;;;;;17.43;60.19;101689.25;4943940;28;45568;-68
2021/06/24 01:16:16;;;;;;;;;10.25;9.50;;;;;17.50;60.33;101696.09;4942215;28;45200;-68
2021/06/24 01:18:42;;;;;;;;;12.50;12.00;;;;;17.46;60.64;101687.28;4940754;28;45255;-68
2021/06/24 01:21:08;;;;;;;;;13.00;11.00;;;;;17.45;60.45;101677.41;4942065;28;45244;-68
2021/06/24 01:23:37;;;;;;;;;9.00;9.00;;;;;17.42;60.27;101677.56;4956953;28;45794;-68
2021/06/24 01:26:03;;;;;;;;;12.50;11.50;;;;;17.42;60.46;101677.56;4929634;28;45318;-68
2021/06/24 01:28:28;;;;;;;;;11.00;10.25;;;;;17.50;59.82;101688.88;4941981;28;45294;-68
2021/06/24 01:30:53;;;;;;;;;13.00;12.50;;;;;17.35;60.24;101668.00;4942347;28;45310;-68
2021/06/24 01:33:19;;;;;;;;;9.75;9.75;;;;;17.39;60.16;101681.28;4942001;28;45580;-68
2021/06/24 01:35:44;;;;;;;;;13.00;10.25;;;;;17.40;60.22;101685.72;4940619;28;45719;-68
2021/06/24 01:38:11;;;;;;;;;10.00;9.50;;;;;17.33;60.09;101659.97;4941885;28;45187;-68
2021/06/24 01:40:37;;;;;;;;;11.00;10.00;;;;;17.34;60.38;101667.13;4941918;28;45415;-68
2021/06/24 01:43:04;;;;;;;;;9.50;8.50;;;;;17.27;60.54;101651.28;4941952;28;45261;-68
2021/06/24 01:45:29;;;;;;;;;11.75;11.00;;;;;17.32;60.61;101660.03;4929071;28;45257;-68
2021/06/24 01:47:55;;;;;;;;;9.25;9.25;;;;;17.47;60.36;101670.13;4941839;28;45255;-68
2021/06/24 01:50:21;;;;;;;;;11.25;10.50;;;;;17.50;60.46;101679.91;4941578;28;45418;-68
2021/06/24 01:52:48;;;;;;;;;9.25;7.75;;;;;17.43;60.32;101654.16;4941971;28;45337;-68
2021/06/24 01:55:15;;;;;;;;;8.25;8.25;;;;;17.47;60.11;101659.31;4941473;28;46260;-68
2021/06/24 01:57:41;;;;;;;;;10.25;9.75;;;;;17.42;60.55;101642.47;4941847;28;45160;-68
2021/06/24 02:00:09;;;;;;;;;9.25;8.50;;;;;17.44;60.00;101643.28;4941835;28;45179;-68
2021/06/24 02:02:35;;;;;;;;;10.00;10.00;;;;;17.43;60.16;101646.94;4941702;28;45449;-68
2021/06/24 02:05:01;;;;;;;;;8.75;8.75;;;;;17.52;59.94;101659.09;4941757;28;45369;-68
2021/06/24 02:07:26;;;;;;;;;14.50;12.50;;;;;17.42;59.96;101645.16;4941272;28;45459;-68
2021/06/24 02:09:52;;;;;;;;;13.00;11.50;;;;;17.39;60.21;101648.91;4941432;28;45801;-68
2021/06/24 02:12:17;;;;;;;;;11.25;10.50;;;;;17.30;60.12;101637.66;4942518;28;45421;-68
2021/06/24 02:14:42;;;;;;;;;10.50;10.50;;;;;17.32;60.21;101633.91;4941376;28;45369;-68
2021/06/24 02:17:08;;;;;;;;;10.00;9.00;;;;;17.37;60.43;101640.00;4941361;28;45424;-68
2021/06/24 02:19:33;;;;;;;;;11.00;9.75;;;;;17.40;59.93;101638.97;4941556;28;45391;-68
2021/06/24 02:21:58;;;;;;;;;8.75;7.50;;;;;17.32;60.21;101628.53;4941184;28;45476;-68
2021/06/24 02:24:24;;;;;;;;;7.75;7.75;;;;;17.33;60.36;101632.97;4956250;28;48015;-68
2021/06/24 02:26:49;;;;;;;;;12.25;8.50;;;;;17.36;60.05;101632.84;4939973;28;45345;-68
2021/06/24 02:29:15;;;;;;;;;10.50;10.50;;;;;17.30;60.20;101621.47;4941539;28;45243;-68
2021/06/24 02:31:40;;;;;;;;;11.00;10.50;;;;;17.22;59.96;101614.59;4941375;28;45183;-69
2021/06/24 02:34:06;;;;;;;;;12.75;11.75;;;;;17.22;59.79;101620.00;4956119;28;46614;-68
2021/06/24 02:36:32;;;;;;;;;11.75;10.00;;;;;17.36;60.16;101643.63;4941151;28;45338;-68
2021/06/24 02:38:57;;;;;;;;;11.50;10.00;;;;;17.31;60.79;101631.31;4941170;28;45353;-68
2021/06/24 02:41:23;;;;;;;;;12.00;12.00;;;;;17.21;60.17;101604.75;4939805;28;45532;-68
2021/06/24 02:43:48;;;;;;;;;7.75;7.75;;;;;17.21;60.13;101599.34;4935681;28;46376;-68
2021/06/24 02:46:14;;;;;;;;;10.75;10.75;;;;;17.47;59.73;101640.41;4934058;28;45339;-68
2021/06/24 02:48:40;;;;;;;;;10.00;9.00;;;;;17.44;60.25;101628.91;4944384;28;45484;-68
2021/06/24 02:51:05;;;;;;;;;11.00;9.00;;;;;17.51;59.83;101639.34;4944357;28;45385;-68
2021/06/24 02:53:31;;;;;;;;;12.75;10.25;;;;;17.45;59.84;101625.25;4944231;28;45394;-68
2021/06/24 02:55:56;;;;;;;;;8.75;8.75;;;;;17.56;59.87;101644.53;4944191;28;45421;-68
2021/06/24 02:58:21;;;;;;;;;14.50;9.25;;;;;17.52;60.01;101630.28;4944387;28;45258;-68
2021/06/24 03:00:47;;;;;;;;;7.50;7.50;;;;;17.53;59.56;101626.66;4959289;28;45317;-68
2021/06/24 03:03:12;;;;;;;;;9.25;9.25;;;;;17.54;59.73;101628.41;4944056;28;45419;-68
2021/06/24 03:05:38;;;;;;;;;9.50;7.50;;;;;17.56;59.89;101626.50;4958977;28;45598;-68
2021/06/24 03:08:03;;;;;;;;;9.25;9.25;;;;;17.60;59.87;101629.94;4944073;28;45461;-68
2021/06/24 03:10:29;;;;;;;;;10.50;9.50;;;;;17.61;59.89;101637.09;4943970;28;45480;-68
2021/06/24 03:12:54;;;;;;;;;10.75;10.00;;;;;17.60;59.47;101638.03;4960366;28;46908;-68
2021/06/24 03:15:19;;;;;;;;;9.50;8.25;;;;;17.60;59.40;101622.69;4958895;28;46125;-68
2021/06/24 03:17:47;;;;;;;;;8.25;8.00;;;;;17.54;59.82;101623.00;4958889;28;45348;-68
2021/06/24 03:20:13;;;;;;;;;9.75;8.50;;;;;17.56;59.72;101637.31;4943946;28;45544;-68
2021/06/24 03:22:38;;;;;;;;;9.50;8.50;;;;;17.51;60.01;101625.00;4943677;28;45264;-68
2021/06/24 03:25:06;;;;;;;;;11.50;9.25;;;;;17.37;60.15;101604.91;4943956;28;45328;-68
2021/06/24 03:27:32;;;;;;;;;11.25;9.50;;;;;17.49;59.62;101625.06;4958731;28;45448;-68
2021/06/24 03:29:57;;;;;;;;;7.50;7.50;;;;;17.46;59.49;101627.91;4943922;28;45329;-68
2021/06/24 03:32:22;;;;;;;;;8.25;8.25;;;;;17.46;59.52;101624.28;4958606;28;47196;-68
2021/06/24 03:34:48;;;;;;;;;10.25;8.75;;;;;17.46;59.78;101625.19;4943824;28;45417;-68
2021/06/24 03:37:13;;;;;;;;;9.50;9.00;;;;;17.51;59.83;101633.09;4943797;28;45391;-68
2021/06/24 03:39:39;;;;;;;;;10.50;8.75;;;;;17.48;59.53;101634.09;4943741;28;45277;-68
2021/06/24 03:42:05;;;;;;;;;8.75;8.75;;;;;17.51;59.79;101636.66;4943466;28;46370;-68
2021/06/24 03:44:30;;;;;;;;;10.75;9.25;;;;;17.53;59.77;101636.56;4932589;28;45652;-68
2021/06/24 03:46:56;;;;;;;;;8.25;8.25;;;;;17.48;59.44;101623.28;4940547;28;45529;-68
2021/06/24 03:49:21;;;;;;;;;11.25;10.00;;;;;17.48;59.80;101622.44;4943698;28;45533;-68
2021/06/24 03:51:47;;;;;;;;;9.75;9.75;;;;;17.52;59.93;101632.97;4943118;28;45261;-68
2021/06/24 03:54:12;;;;;;;;;9.25;9.25;;;;;17.49;59.91;101627.75;4958319;28;45327;-68
2021/06/24 03:56:38;;;;;;;;;9.50;9.50;;;;;17.53;59.50;101633.88;4943598;28;45536;-68
2021/06/24 03:59:03;;;;;;;;;9.25;9.25;;;;;17.53;59.59;101636.56;4942458;28;45540;-68
2021/06/24 04:01:30;;;;;;;;;10.00;10.00;;;;;17.48;59.58;101633.22;4943226;28;46275;-68
2021/06/24 04:03:56;;;;;;;;;8.00;8.00;;;;;17.45;59.65;101634.22;4943447;28;45314;-68
2021/06/24 04:06:21;;;;;;;;;9.75;8.00;;;;;17.41;58.91;101617.31;4943327;28;45542;-68
2021/06/24 04:08:47;;;;;;;;;9.25;9.25;;;;;17.46;59.71;101627.91;4943027;28;45681;-68
2021/06/24 04:11:12;;;;;;;;;13.25;9.50;;;;;17.47;59.38;101629.63;4941866;28;47032;-68
2021/06/24 04:13:38;;;;;;;;;8.25;8.25;;;;;17.48;59.39;101626.00;4944456;28;45322;-68
2021/06/24 04:16:06;;;;;;;;;8.50;8.50;;;;;17.44;59.59;101618.09;4943071;28;45423;-68
2021/06/24 04:18:32;;;;;;;;;8.50;8.50;;;;;17.49;59.40;101624.16;4957984;28;45551;-68
2021/06/24 04:20:57;;;;;;;;;11.00;9.00;;;;;17.41;59.56;101611.03;4942808;28;45310;-68
2021/06/24 04:23:23;;;;;;;;;11.25;10.75;;;;;17.43;59.47;101619.06;4958026;28;45359;-68
2021/06/24 04:25:48;;;;;;;;;9.50;9.50;;;;;17.51;59.43;101636.66;4942972;28;45348;-68
2021/06/24 04:28:14;;;;;;;;;11.25;9.75;;;;;17.33;59.19;101616.78;4943035;28;45385;-68
2021/06/24 04:30:39;;;;;;;;;7.50;7.00;;;;;17.47;59.31;101643.13;4942691;28;45973;-68
2021/06/24 04:33:04;;;;;;;;;9.50;8.50;;;;;17.40;59.31;101636.28;4957831;28;45238;-68
2021/06/24 04:35:30;;;;;;;;;10.50;8.75;;;;;17.44;59.03;101651.38;4957535;28;45301;-68
2021/06/24 04:37:55;;;;;;;;;12.50;9.25;;;;;17.43;59.42;101646.06;4943088;28;45331;-68
2021/06/24 04:40:21;;;;;;;;;10.50;7.25;;;;;17.45;59.57;101653.13;4942254;28;46344;-68
2021/06/24 04:42:47;;;;;;;;;11.75;9.00;;;;;17.37;59.19;101647.19;4942788;28;45333;-68
2021/06/24 04:45:14;;;;;;;;;10.75;10.75;;;;;17.38;59.03;101648.97;4944571;28;45437;-68
2021/06/24 04:47:40;;;;;;;;;8.25;8.25;;;;;17.34;59.12;101639.25;4942681;28;45530;-68
2021/06/24 04:50:06;;;;;;;;;9.50;9.50;;;;;17.36;59.24;101649.03;4942589;28;46246;-67
2021/06/24 04:52:32;;;;;;;;;7.00;7.00;;;;;17.38;59.03;101649.84;4942514;28;45334;-68
2021/06/24 04:54:57;;;;;;;;;7.25;7.25;;;;;17.39;59.06;101651.59;4942543;28;45244;-68
2021/06/24 04:57:23;;;;;;;;;8.75;7.50;;;;;17.38;59.17;101648.97;4942515;28;45548;-68
2021/06/24 04:59:48;;;;;;;;;6.75;6.75;;;;;17.40;59.54;101658.72;4942420;28;45527;-68
2021/06/24 05:02:13;;;;;;;;;9.75;9.75;;;;;17.44;58.81;101658.59;4942562;28;45341;-68
2021/06/24 05:04:39;;;;;;;;;8.25;8.25;;;;;17.45;58.81;101672.00;4942506;28;45292;-68
2021/06/24 05:07:08;;;;;;;;;11.25;11.00;;;;;17.39;59.33;101648.91;4942321;28;45526;-68
2021/06/24 05:09:38;;;;;;;;;9.25;7.00;;;;;17.46;59.11;101667.47;4941589;28;46255;-68
2021/06/24 05:12:08;;;;;;;;;10.75;10.00;;;;;17.45;59.42;101663.91;4942556;28;45485;-68
2021/06/24 05:14:33;;;;;;;;;8.25;8.25;;;;;17.36;59.33;101657.13;4942962;28;45393;-68
2021/06/24 05:16:59;;;;;;;;;7.00;6.50;;;;;17.39;58.78;101657.00;4942225;28;45569;-68
2021/06/24 05:19:24;;;;;;;;;8.75;8.75;;;;;17.38;59.09;101666.03;4956760;28;47145;-68
2021/06/24 05:21:50;;;;;;;;;8.50;8.50;;;;;17.34;58.83;101656.34;4942159;28;45392;-68
2021/06/24 05:24:15;;;;;;;;;11.25;9.00;;;;;17.40;59.24;101672.22;4956747;28;45488;-68
2021/06/24 05:26:40;;;;;;;;;10.50;9.00;;;;;17.25;58.99;101635.16;4957121;28;45187;-67
2021/06/24 05:29:06;;;;;;;;;7.50;7.50;;;;;17.22;59.06;101636.19;4956773;28;46869;-68
2021/06/24 05:31:31;;;;;;;;;8.25;8.25;;;;;17.17;58.86;101626.53;4942257;28;45401;-68
2021/06/24 05:33:57;;;;;;;;;4.50;4.50;;;;;17.34;59.23;101653.63;4942020;28;45309;-68
2021/06/24 05:36:22;;;;;;;;;8.75;8.75;;;;;17.34;58.59;101652.72;4940536;28;46086;-67
2021/06/24 05:38:48;;;;;;;;;10.75;10.25;;;;;17.27;59.36;101651.28;4941659;28;45164;-68
2021/06/24 05:41:13;;;;;;;;;11.50;10.75;;;;;17.27;58.92;101638.66;4942090;28;45215;-67
2021/06/24 05:43:38;;;;;;;;;10.00;9.00;;;;;17.30;59.16;101654.72;4952573;28;45633;-68
2021/06/24 05:53:49;;;;;;;;;9.75;9.00;;;;;17.33;59.01;101665.38;4825833;29;46134;-69
2021/06/24 05:56:59;;;;;;;;;;;;;;;;;;;;;
2021/06/24 06:00:18;;;;;;;;;;;;;;;;;;;;;
2021/06/24 06:03:00;;;;;;;;;10.25;7.50;;;;;17.22;59.48;101673.97;4941772;28;75189;-70
2021/06/24 06:05:40;;;;;;;;;;;;;;;;;;;;;
2021/06/24 06:08:31;;;;;;;;;;;;;;;;;;;;;
2021/06/24 06:11:43;;;;;;;;;;;;;;;;;;;;;
2021/06/24 06:15:04;;;;;;;;;;;;;;;;;;;;;
2021/06/24 06:17:30;;;;;;;;;11.75;10.00;;;;;16.98;59.50;101642.69;4938918;28;72906;-68
2021/06/24 06:19:55;;;;;;;;;12.50;12.00;;;;;17.06;59.36;101656.72;4956362;28;45367;-68
2021/06/24 06:22:21;;;;;;;;;8.75;8.75;;;;;17.19;59.11;101682.19;4956537;28;45597;-68
2021/06/24 06:24:46;;;;;;;;;8.75;8.75;;;;;17.12;59.31;101669.03;4948282;28;46387;-67
2021/06/24 06:27:11;;;;;;;;;9.75;9.75;;;;;17.18;59.46;101693.91;4944656;28;45843;-67
2021/06/24 06:29:37;;;;;;;;;11.75;9.75;;;;;17.19;59.21;101692.09;4959576;28;45338;-69
2021/06/24 06:32:02;;;;;;;;;11.75;10.50;;;;;17.08;59.22;101673.69;4943979;28;45355;-68
2021/06/24 06:34:28;;;;;;;;;14.50;10.25;;;;;17.11;59.27;101678.09;4941201;28;45271;-67
2021/06/24 06:36:53;;;;;;;;;10.00;10.00;;;;;17.14;59.05;101686.03;4944167;28;45493;-70
2021/06/24 06:39:19;;;;;;;;;11.25;9.50;;;;;17.12;59.43;101688.78;4948589;28;45615;-68
2021/06/24 06:41:44;;;;;;;;;11.00;10.00;;;;;17.10;59.64;101688.00;4945171;28;45498;-68
2021/06/24 06:44:10;;;;;;;;;10.25;9.25;;;;;17.10;59.45;101695.22;4944321;28;45437;-68
2021/06/24 06:46:35;;;;;;;;;10.75;10.00;;;;;17.08;59.61;101686.31;4943992;28;45472;-69
2021/06/24 06:49:01;;;;;;;;;9.75;9.75;;;;;17.10;59.34;101700.59;4924147;28;46851;-69
2021/06/24 06:51:26;;;;;;;;;11.50;9.75;;;;;17.07;59.24;101690.81;4932711;28;45713;-70
2021/06/24 06:53:52;;;;;;;;;11.25;10.00;;;;;17.00;59.62;101682.13;4950069;28;45658;-69
2021/06/24 06:56:17;;;;;;;;;12.00;11.25;;;;;17.15;59.26;101701.28;4957971;28;45380;-70
2021/06/24 06:58:43;;;;;;;;;12.25;10.00;;;;;17.15;59.20;101703.97;4950141;28;45489;-70
2021/06/24 07:01:09;;;;;;;;;12.00;10.25;;;;;17.15;59.32;101709.38;4943061;28;45547;-70
2021/06/24 07:03:34;;;;;;;;;14.00;12.75;;;;;17.16;59.76;101706.59;4942960;28;46685;-68
2021/06/24 07:06:00;;;;;;;;;12.50;10.00;;;;;17.15;59.46;101712.06;4943464;28;45333;-68
2021/06/24 07:08:25;;;;;;;;;17.00;13.25;;;;;17.06;59.47;101693.56;4941606;28;45431;-68
2021/06/24 07:10:50;;;;;;;;;12.00;12.00;;;;;16.96;59.55;101685.91;4953128;28;45266;-67
2021/06/24 07:13:16;;;;;;;;;12.50;12.50;;;;;17.03;59.26;101702.69;4945009;28;45950;-68
2021/06/24 07:15:41;;;;;;;;;14.00;13.00;;;;;16.98;59.54;101702.91;4933449;28;45294;-68
2021/06/24 07:18:11;;;;;;;;;13.75;13.00;;;;;16.97;59.91;101706.56;4957932;28;45428;-70
2021/06/24 07:20:36;;;;;;;;;9.00;9.00;;;;;17.01;59.88;101710.84;4942622;28;45548;-70
2021/06/24 07:23:02;;;;;;;;;11.75;10.50;;;;;16.89;59.88;101687.13;4940721;28;47030;-70
2021/06/24 07:25:28;;;;;;;;;12.50;12.50;;;;;16.96;59.99;101702.09;4939434;28;45333;-70
2021/06/24 07:27:53;;;;;;;;;11.50;11.00;;;;;16.94;59.75;101697.69;4942624;28;45382;-70
2021/06/24 07:30:19;;;;;;;;;12.50;10.00;;;;;16.90;59.63;101686.16;4957441;28;45407;-70
2021/06/24 07:32:45;;;;;;;;;11.50;11.00;;;;;16.95;59.73;101696.78;4936572;28;46153;-70
2021/06/24 07:35:11;;;;;;;;;18.50;15.75;;;;;16.89;59.95;101692.53;4954124;28;45662;-70
2021/06/24 07:37:37;;;;;;;;;12.50;12.25;;;;;16.96;59.99;101701.22;4940074;28;45468;-70
2021/06/24 07:40:05;;;;;;;;;11.00;9.75;;;;;16.85;59.84;101685.50;4947602;28;45751;-70
2021/06/24 07:42:31;;;;;;;;;12.00;11.50;;;;;16.93;60.09;101701.34;4941846;28;46233;-70
2021/06/24 07:44:56;;;;;;;;;9.75;9.75;;;;;16.91;60.16;101701.44;4941335;28;45413;-71
2021/06/24 07:47:22;;;;;;;;;12.25;12.00;;;;;16.90;60.11;101690.69;4941718;28;45534;-70
2021/06/24 07:49:47;;;;;;;;;11.75;10.50;;;;;16.97;59.70;101708.34;4941741;28;45365;-70
2021/06/24 07:52:13;;;;;;;;;14.75;14.00;;;;;16.90;59.63;101696.97;4956977;28;47842;-71
2021/06/24 07:54:38;;;;;;;;;14.25;13.25;;;;;16.92;59.78;101694.19;4942656;28;46644;-71
2021/06/24 07:57:04;;;;;;;;;12.50;11.25;;;;;16.93;60.12;101713.00;4942580;28;45377;-71
2021/06/24 07:59:30;;;;;;;;;11.50;11.50;;;;;16.91;59.87;101709.50;4940787;28;45653;-70
2021/06/24 08:01:55;;;;;;;;;12.00;12.00;;;;;16.91;59.84;101711.34;4957256;28;47011;-71
2021/06/24 08:04:21;;;;;;;;;14.25;12.00;;;;;16.95;59.66;101715.66;4957818;28;45301;-71
2021/06/24 08:06:46;;;;;;;;;12.50;11.50;;;;;16.90;60.27;101701.50;4957469;28;45384;-71
2021/06/24 08:09:14;;;;;;;;;14.00;12.25;;;;;17.00;59.87;101703.69;4941815;28;45552;-70
2021/06/24 08:11:39;;;;;;;;;11.50;10.50;;;;;17.08;60.08;101716.84;4942837;28;46494;-71
2021/06/24 08:14:05;;;;;;;;;13.50;12.25;;;;;17.06;59.46;101702.56;4951765;28;45284;-71
2021/06/24 08:16:31;;;;;;;;;10.75;9.00;;;;;17.15;59.67;101720.16;4957114;28;45398;-70
2021/06/24 08:18:56;;;;;;;;;16.00;13.00;;;;;17.16;59.82;101717.41;4956754;28;45475;-70
2021/06/24 08:21:22;;;;;;;;;11.25;11.25;;;;;17.10;59.73;101698.78;4941783;28;45330;-71
2021/06/24 08:23:47;;;;;;;;;11.00;11.00;;;;;16.98;59.97;101677.75;4942303;28;45487;-70
2021/06/24 08:26:14;;;;;;;;;11.25;10.75;;;;;17.15;59.87;101701.28;4957112;28;45552;-71
2021/06/24 08:28:40;;;;;;;;;11.00;10.50;;;;;17.14;59.73;101699.50;4947629;28;45546;-71
2021/06/24 08:31:07;;;;;;;;;12.50;12.50;;;;;17.21;60.14;101709.09;4946495;28;45704;-71
2021/06/24 08:33:32;;;;;;;;;13.00;11.25;;;;;17.16;60.12;101706.59;4956745;28;45592;-71
2021/06/24 08:35:58;;;;;;;;;14.75;13.25;;;;;17.23;59.58;101709.91;4941490;28;45342;-71
2021/06/24 08:38:23;;;;;;;;;14.75;13.25;;;;;17.32;59.92;101725.66;4942017;28;45234;-71
2021/06/24 08:40:48;;;;;;;;;14.00;14.00;;;;;17.30;59.43;101724.88;4928891;28;47152;-71
2021/06/24 08:43:14;;;;;;;;;14.00;12.50;;;;;17.30;59.91;101711.38;4926612;28;45922;-71
2021/06/24 08:45:40;;;;;;;;;15.25;14.50;;;;;17.28;59.61;101712.41;4922085;28;45447;-70
2021/06/24 08:48:15;;;;;;;;;16.25;14.00;;;;;17.30;59.37;101705.97;4937095;28;45837;-70
2021/06/24 08:50:50;;;;;;;;;17.25;14.25;;;;;17.37;59.47;101709.28;4936297;28;48130;-70
2021/06/24 08:53:20;;;;;;;;;12.25;12.25;;;;;17.40;59.44;101717.22;4922304;28;45425;-70
2021/06/24 08:55:51;;;;;;;;;13.75;12.00;;;;;17.50;59.37;101729.34;4937302;28;45497;-70
2021/06/24 08:58:16;;;;;;;;;12.75;12.75;;;;;17.44;59.53;101710.78;4909178;28;45708;-70
2021/06/24 09:00:42;;;;;;;;;18.00;14.50;;;;;17.52;59.70;101724.75;4933114;28;46967;-70
2021/06/24 09:03:22;;;;;;;;;13.50;10.75;;;;;17.38;59.72;101695.72;4915754;28;45537;-70
2021/06/24 09:05:50;;;;;;;;;12.75;12.75;;;;;17.53;59.69;101729.22;4913883;28;45271;-70
2021/06/24 09:08:40;;;;;;;;;15.75;12.00;;;;;17.52;59.49;101726.59;4932914;28;45641;-71
2021/06/24 09:11:09;;;;;;;;;14.50;12.50;;;;;17.54;59.15;101725.59;4915426;28;48089;-71
2021/06/24 09:13:35;;;;;;;;;11.25;11.25;;;;;17.51;59.75;101725.72;4937414;28;45462;-71
2021/06/24 09:16:18;;;;;;;;;15.25;12.00;;;;;17.51;59.03;101722.16;4918106;28;45411;-71
2021/06/24 09:18:43;;;;;;;;;13.00;13.00;;;;;17.59;59.44;101733.44;4920902;28;46415;-71
2021/06/24 09:21:25;;;;;;;;;13.00;12.00;;;;;17.58;59.36;101729.03;4935615;28;46931;-71
2021/06/24 09:23:53;;;;;;;;;10.50;10.50;;;;;17.62;58.80;101733.31;4922063;28;45632;-71
2021/06/24 09:26:19;;;;;;;;;14.50;14.50;;;;;17.59;58.98;101728.06;4936988;28;45439;-70
2021/06/24 09:28:50;;;;;;;;;13.75;13.00;;;;;17.57;59.26;101727.25;4909042;28;45396;-71
2021/06/24 09:31:25;;;;;;;;;12.75;11.75;;;;;17.63;59.32;101732.38;4933039;28;47127;-71
2021/06/24 09:33:52;;;;;;;;;13.00;13.00;;;;;17.67;59.47;101733.97;4917895;28;45334;-71
2021/06/24 09:36:38;;;;;;;;;14.00;12.75;;;;;17.59;59.20;101730.75;4919083;28;45481;-71
2021/06/24 09:39:06;;;;;;;;;12.50;12.50;;;;;17.66;59.23;101739.44;4911008;28;45371;-72
2021/06/24 09:41:32;;;;;;;;;14.00;13.00;;;;;17.65;59.17;101721.50;4934690;28;47869;-70
2021/06/24 09:43:58;;;;;;;;;13.00;12.25;;;;;17.69;59.11;101723.09;4922194;28;45429;-75
2021/06/24 09:46:25;;;;;;;;;16.75;14.75;;;;;17.76;59.08;101730.00;4921406;28;45393;-71
2021/06/24 09:49:01;;;;;;;;;14.00;12.25;;;;;17.84;58.88;101735.00;4921566;28;45558;-72
2021/06/24 09:51:39;;;;;;;;;13.75;12.75;;;;;17.79;59.19;101735.22;4920896;28;45633;-72
2021/06/24 09:54:10;;;;;;;;;15.75;14.00;;;;;17.88;58.89;101737.53;4921624;28;45524;-72
2021/06/24 09:56:46;;;;;;;;;15.50;14.25;;;;;17.93;58.68;101748.13;4920653;28;45422;-72
2021/06/24 09:59:14;;;;;;;;;10.25;10.25;;;;;17.87;58.38;101732.22;4921462;28;45545;-72
2021/06/24 10:01:45;;;;;;;;;14.00;13.00;;;;;17.93;58.36;101735.50;4919595;28;48136;-72
2021/06/24 10:04:20;;;;;;;;;13.25;11.75;;;;;18.03;58.40;101745.88;4931379;28;45501;-72
2021/06/24 10:06:46;;;;;;;;;10.75;10.75;;;;;18.02;57.99;101730.59;4909213;28;45492;-71
2021/06/24 10:09:13;;;;;;;;;13.00;13.00;;;;;17.99;57.72;101739.72;4919009;28;45386;-67
2021/06/24 10:11:38;;;;;;;;;13.50;12.50;;;;;18.02;57.79;101752.22;4920299;28;45518;-69
2021/06/24 10:14:05;;;;;;;;;10.25;10.25;;;;;17.90;58.27;101723.97;4923812;28;45418;-70
2021/06/24 10:16:31;;;;;;;;;11.75;11.00;;;;;18.02;58.20;101744.97;4920804;28;45486;-72
2021/06/24 10:18:59;;;;;;;;;12.25;12.25;;;;;18.05;58.00;101750.25;4920749;28;45436;-72
2021/06/24 10:21:27;;;;;;;;;15.50;13.00;;;;;18.05;57.95;101752.94;4919903;28;46405;-71
2021/06/24 10:24:00;;;;;;;;;14.00;11.00;;;;;18.03;57.79;101744.03;4920902;28;45524;-70
2021/06/24 10:26:27;;;;;;;;;12.50;10.75;;;;;18.12;57.86;101750.81;4921272;28;45409;-71
2021/06/24 10:29:12;;;;;;;;;11.00;10.75;;;;;18.06;57.66;101737.59;4921428;28;45236;-71
2021/06/24 10:31:40;;;;;;;;;14.25;12.50;;;;;18.09;58.05;101743.75;4920132;28;46549;-70
2021/06/24 10:34:06;;;;;;;;;15.50;13.25;;;;;18.14;57.61;101746.22;4920680;28;45600;-71
2021/06/24 10:36:32;;;;;;;;;13.75;12.00;;;;;18.05;57.12;101742.13;4920800;28;45457;-71
2021/06/24 10:38:58;;;;;;;;;12.25;11.75;;;;;18.17;56.90;101756.00;4921221;28;45625;-70
2021/06/24 10:41:25;;;;;;;;;12.25;12.25;;;;;18.12;56.53;101742.72;4921122;28;45461;-71
2021/06/24 10:43:52;;;;;;;;;12.75;12.25;;;;;18.15;57.18;101743.44;4934998;28;45827;-71
2021/06/24 10:46:21;;;;;;;;;10.50;10.50;;;;;18.09;56.54;101732.94;4919338;28;45334;-70
2021/06/24 10:48:46;;;;;;;;;13.00;12.75;;;;;18.20;56.42;101745.94;4920934;28;45560;-71
2021/06/24 10:51:14;;;;;;;;;13.25;13.25;;;;;18.23;56.46;101744.91;4920415;28;46167;-70
2021/06/24 10:53:48;;;;;;;;;15.00;13.25;;;;;18.27;57.12;101750.06;4921360;28;45381;-71
2021/06/24 10:56:41;;;;;;;;;15.25;12.25;;;;;18.22;57.27;101735.03;4914820;28;45341;-70
2021/06/24 10:59:28;;;;;;;;;11.75;11.75;;;;;18.31;56.50;101745.41;4916720;28;45560;-70
2021/06/24 11:02:03;;;;;;;;;13.00;11.25;;;;;18.31;55.84;101737.31;4915219;28;45521;-72
2021/06/24 11:04:32;;;;;;;;;11.50;9.50;;;;;18.36;56.52;101739.75;4921040;28;45388;-71
2021/06/24 11:07:04;;;;;;;;;9.00;8.50;;;;;18.42;56.87;101742.19;4920755;28;45370;-71
2021/06/24 11:09:31;;;;;;;;;14.25;12.75;;;;;18.35;56.62;101728.09;4924162;28;45438;-71
2021/06/24 11:11:57;;;;;;;;;14.00;13.50;;;;;18.43;56.17;101725.88;4924623;28;46188;-71
2021/06/24 11:14:53;;;;;;;;;13.00;12.50;;;;;18.52;56.02;101729.94;4928440;28;45416;-71
2021/06/24 11:17:41;;;;;;;;;12.00;10.50;;;;;18.61;56.09;101736.72;4922953;28;45292;-71
2021/06/24 11:20:16;;;;;;;;;12.75;12.00;;;;;18.63;55.45;101733.00;4913665;28;45673;-71
2021/06/24 11:22:51;;;;;;;;;13.00;12.50;;;;;18.67;55.55;101726.47;4923042;28;47753;-73
2021/06/24 11:25:16;;;;;;;;;10.75;10.75;;;;;18.65;55.54;101719.41;4938465;28;45370;-71
2021/06/24 11:27:42;;;;;;;;;13.25;12.75;;;;;18.77;55.02;101726.00;4910323;28;45370;-71
2021/06/24 11:30:09;;;;;;;;;10.75;10.75;;;;;18.84;55.35;101724.75;4938813;28;45463;-71
2021/06/24 11:32:42;;;;;;;;;12.50;12.50;;;;;18.75;55.26;101704.44;4905308;28;46288;-70